createdAt,value
2018-07-17T00:01:06.959Z,98752.07
2018-07-17T00:03:35.074Z,98760.23
2018-07-17T00:06:04.011Z,98749.54
2018-07-17T00:08:32.557Z,98749.14
2018-07-17T00:11:00.574Z,98732.09
2018-07-17T00:13:28.722Z,98746.81
2018-07-17T00:15:57.376Z,98742.92
2018-07-17T00:18:25.507Z,98740.72
2018-07-17T00:20:54.474Z,98743.49
2018-07-17T00:23:22.934Z,98732.16
2018-07-17T00:25:51.127Z,98736.63
2018-07-17T00:28:19.137Z,98711.91
2018-07-17T00:30:47.776Z,98732.67
2018-07-17T00:33:16.002Z,98734.54
2018-07-17T00:35:44.970Z,98733.81
2018-07-17T00:38:13.398Z,98736.67
2018-07-17T00:40:41.471Z,98733.67
2018-07-17T00:43:09.673Z,98742.68
2018-07-17T00:45:38.218Z,98733.88
2018-07-17T00:48:07.007Z,98743.05
2018-07-17T00:50:35.045Z,98743.02
2018-07-17T00:53:04.161Z,98747.77
2018-07-17T00:55:32.799Z,98750.41
2018-07-17T00:58:01.285Z,98743.67
2018-07-17T01:00:35.330Z,98714.84
2018-07-17T01:03:09.042Z,98749.86
2018-07-17T01:05:43.035Z,98747.20
2018-07-17T01:08:16.494Z,98744.55
2018-07-17T01:10:50.271Z,98746.00
2018-07-17T01:13:31.877Z,98745.80
2018-07-17T01:16:00.307Z,98711.40
2018-07-17T01:18:28.603Z,98757.28
2018-07-17T01:20:57.009Z,98756.70
2018-07-17T01:23:25.674Z,98758.66
2018-07-17T01:25:54.035Z,98757.19
2018-07-17T01:28:22.265Z,98763.53
2018-07-17T01:30:51.122Z,98718.23
2018-07-17T01:33:20.171Z,98752.27
2018-07-17T01:35:48.219Z,98749.86
2018-07-17T01:38:17.267Z,98752.36
2018-07-17T01:40:45.727Z,98754.58
2018-07-17T01:43:14.779Z,98743.91
2018-07-17T01:45:43.968Z,98752.52
2018-07-17T01:48:11.987Z,98754.09
2018-07-17T01:50:40.014Z,98746.47
2018-07-17T01:53:09.039Z,98751.49
2018-07-17T01:55:37.305Z,98720.23
2018-07-17T01:58:05.663Z,98744.86
2018-07-17T02:00:34.517Z,98744.92
2018-07-17T02:03:02.750Z,98739.58
2018-07-17T02:05:31.004Z,98667.31
2018-07-17T02:07:59.470Z,98748.66
2018-07-17T02:10:27.605Z,98740.66
2018-07-17T02:12:55.855Z,98717.07
2018-07-17T02:15:25.765Z,98496.19
2018-07-17T02:17:53.774Z,98734.09
2018-07-17T02:20:21.817Z,98732.73
2018-07-17T02:22:50.253Z,98735.97
2018-07-17T02:25:18.411Z,98741.53
2018-07-17T02:27:48.173Z,98744.15
2018-07-17T02:30:16.569Z,98738.28
2018-07-17T02:32:44.633Z,98740.39
2018-07-17T02:35:12.906Z,98742.50
2018-07-17T02:37:41.308Z,98735.23
2018-07-17T02:40:09.660Z,98731.32
2018-07-17T02:42:39.164Z,98735.86
2018-07-17T02:45:07.733Z,98734.76
2018-07-17T02:47:37.222Z,98734.43
2018-07-17T02:50:10.027Z,98736.91
2018-07-17T02:52:39.303Z,98737.61
2018-07-17T02:55:08.200Z,98735.48
2018-07-17T02:57:37.441Z,98746.28
2018-07-17T03:00:05.522Z,98743.52
2018-07-17T03:02:34.282Z,98748.05
2018-07-17T03:05:03.274Z,98746.16
2018-07-17T03:07:34.473Z,98748.84
2018-07-17T03:10:03.054Z,98635.84
2018-07-17T03:12:31.669Z,98793.91
2018-07-17T03:14:59.893Z,98750.45
2018-07-17T03:17:27.940Z,98744.21
2018-07-17T03:19:56.638Z,98748.86
2018-07-17T03:22:24.672Z,98754.39
2018-07-17T03:24:52.682Z,98747.86
2018-07-17T03:27:21.944Z,98753.78
2018-07-17T03:29:52.485Z,98744.62
2018-07-17T03:32:20.483Z,98752.67
2018-07-17T03:34:48.831Z,98755.87
2018-07-17T03:37:16.843Z,98762.41
2018-07-17T03:39:44.975Z,98766.66
2018-07-17T03:42:14.181Z,98774.68
2018-07-17T03:44:42.238Z,98772.79
2018-07-17T03:47:10.732Z,98772.41
2018-07-17T03:49:38.772Z,98769.11
2018-07-17T03:52:07.250Z,98764.78
2018-07-17T03:54:35.591Z,98775.27
2018-07-17T03:57:03.610Z,98786.52
2018-07-17T03:59:32.410Z,98774.24
2018-07-17T04:02:00.430Z,98738.05
2018-07-17T04:04:28.422Z,98777.69
2018-07-17T04:06:56.849Z,98771.69
2018-07-17T04:09:25.121Z,98769.00
2018-07-17T04:12:00.744Z,98768.08
2018-07-17T04:14:29.817Z,98762.17
2018-07-17T04:16:59.073Z,98740.81
2018-07-17T04:19:27.595Z,98764.73
2018-07-17T04:21:56.450Z,98771.27
2018-07-17T04:24:24.929Z,98762.95
2018-07-17T04:26:57.541Z,98774.02
2018-07-17T04:29:26.410Z,98769.70
2018-07-17T04:31:55.066Z,98774.92
2018-07-17T04:34:23.844Z,98722.03
2018-07-17T04:36:52.636Z,98784.62
2018-07-17T04:39:20.606Z,98790.06
2018-07-17T04:41:48.584Z,98781.70
2018-07-17T04:44:19.496Z,98789.20
2018-07-17T04:46:47.801Z,98791.33
2018-07-17T04:49:15.850Z,98764.92
2018-07-17T04:51:44.617Z,98789.95
2018-07-17T04:54:12.640Z,98788.24
2018-07-17T04:56:40.759Z,98792.26
2018-07-17T04:59:09.377Z,98798.73
2018-07-17T05:01:37.915Z,98795.72
2018-07-17T05:04:06.123Z,98776.68
2018-07-17T05:06:34.814Z,98797.37
2018-07-17T05:09:03.899Z,98781.59
2018-07-17T05:11:32.491Z,98793.33
2018-07-17T05:14:01.973Z,98783.88
2018-07-17T05:16:30.158Z,98792.80
2018-07-17T05:18:58.416Z,98772.38
2018-07-17T05:21:26.766Z,98807.01
2018-07-17T05:23:54.768Z,98816.69
2018-07-17T05:26:22.795Z,98817.63
2018-07-17T05:28:52.050Z,98819.46
2018-07-17T05:31:20.246Z,98814.38
2018-07-17T05:33:48.649Z,98814.48
2018-07-17T05:36:18.391Z,98815.14
2018-07-17T05:38:46.362Z,98809.03
2018-07-17T05:41:15.197Z,98785.73
2018-07-17T05:43:43.989Z,98809.97
2018-07-17T05:46:12.026Z,98811.67
2018-07-17T05:48:40.162Z,98803.64
2018-07-17T05:51:08.487Z,98805.18
2018-07-17T05:53:36.478Z,98815.40
2018-07-17T05:56:04.587Z,98813.52
2018-07-17T05:58:33.107Z,98812.87
2018-07-17T06:01:01.248Z,98817.95
2018-07-17T06:03:29.247Z,98814.59
2018-07-17T06:05:57.957Z,98816.12
2018-07-17T06:08:25.981Z,98809.05
2018-07-17T06:10:54.271Z,98806.56
2018-07-17T06:13:22.679Z,98810.62
2018-07-17T06:15:50.777Z,98806.49
2018-07-17T06:18:18.951Z,98807.00
2018-07-17T06:20:46.995Z,98808.45
2018-07-17T06:23:15.023Z,98817.89
2018-07-17T06:25:43.639Z,98812.02
2018-07-17T06:28:13.479Z,98816.23
2018-07-17T06:30:41.536Z,98801.08
2018-07-17T06:33:09.523Z,98816.70
2018-07-17T06:35:39.282Z,98819.06
2018-07-17T06:38:07.580Z,98814.88
2018-07-17T06:40:35.591Z,98816.67
2018-07-17T06:43:04.550Z,98729.64
2018-07-17T06:45:32.590Z,98813.65
2018-07-17T06:48:00.708Z,98811.89
2018-07-17T06:50:28.891Z,98808.92
2018-07-17T06:52:57.251Z,98810.40
2018-07-17T06:55:25.295Z,98807.42
2018-07-17T06:57:56.335Z,98714.43
2018-07-17T07:00:24.538Z,98806.36
2018-07-17T07:02:53.983Z,98800.47
2018-07-17T07:05:22.135Z,98812.17
2018-07-17T07:07:50.324Z,98816.02
2018-07-17T07:10:19.185Z,98805.48
2018-07-17T07:12:47.838Z,98813.83
2018-07-17T07:15:16.359Z,98811.30
2018-07-17T07:17:47.722Z,98810.02
2018-07-17T07:20:16.723Z,98800.62
2018-07-17T07:22:45.843Z,98785.78
2018-07-17T07:25:14.009Z,98799.91
2018-07-17T07:27:43.292Z,98765.55
2018-07-17T07:30:14.970Z,98777.36
2018-07-17T07:32:43.370Z,98672.09
2018-07-17T07:35:14.668Z,98778.83
2018-07-17T07:37:45.271Z,98775.55
2018-07-17T07:40:13.604Z,98774.33
2018-07-17T07:42:42.791Z,98750.39
2018-07-17T07:45:14.697Z,98767.45
2018-07-17T07:47:43.443Z,98767.63
2018-07-17T07:50:11.780Z,98771.03
2018-07-17T07:52:41.177Z,98741.66
2018-07-17T07:55:09.250Z,98753.74
2018-07-17T07:57:40.856Z,98773.17
2018-07-17T08:00:12.242Z,98612.81
2018-07-17T08:02:45.257Z,98759.70
2018-07-17T08:05:13.865Z,98764.26
2018-07-17T08:07:41.966Z,98759.06
2018-07-17T08:10:14.524Z,98765.50
2018-07-17T08:12:43.858Z,98648.70
2018-07-17T08:15:13.290Z,98763.59
2018-07-17T08:18:06.521Z,98619.84
2018-07-17T08:20:38.145Z,98742.02
2018-07-17T08:23:06.918Z,98752.77
2018-07-17T08:25:36.760Z,98766.89
2018-07-17T08:28:07.925Z,98727.93
2018-07-17T08:30:36.423Z,98764.34
2018-07-17T08:33:06.755Z,98768.88
2018-07-17T08:35:34.886Z,98758.70
2018-07-17T08:38:03.993Z,98763.77
2018-07-17T08:40:33.695Z,98766.05
2018-07-17T08:43:02.028Z,98761.84
2018-07-17T08:45:33.617Z,98754.03
2018-07-17T08:48:02.889Z,98730.02
2018-07-17T08:50:31.261Z,98755.28
2018-07-17T08:53:00.077Z,98762.22
2018-07-17T08:55:33.763Z,98767.44
2018-07-17T08:58:02.327Z,98763.09
2018-07-17T09:00:32.421Z,98652.11
2018-07-17T09:03:00.899Z,98760.66
2018-07-17T09:05:29.053Z,98767.04
2018-07-17T09:07:57.165Z,98733.08
2018-07-17T09:10:27.241Z,98772.97
2018-07-17T09:12:55.767Z,98733.51
2018-07-17T09:15:27.904Z,98719.23
2018-07-17T09:17:56.581Z,98755.14
2018-07-17T09:20:27.300Z,98753.75
2018-07-17T09:22:55.714Z,98763.19
2018-07-17T09:25:25.171Z,98758.63
2018-07-17T09:27:56.584Z,98760.73
2018-07-17T09:30:29.618Z,98755.72
2018-07-17T09:32:58.293Z,98755.88
2018-07-17T09:35:26.934Z,98756.71
2018-07-17T09:37:55.193Z,98750.34
2018-07-17T09:40:24.172Z,98749.78
2018-07-17T09:42:57.668Z,98635.86
2018-07-17T09:45:26.140Z,98746.94
2018-07-17T09:47:55.492Z,98743.59
2018-07-17T09:50:24.791Z,98749.55
2018-07-17T09:52:56.493Z,98734.17
2018-07-17T09:55:29.228Z,98744.09
2018-07-17T09:57:59.168Z,98711.18
2018-07-17T10:00:35.101Z,98743.66
2018-07-17T10:03:05.153Z,98699.17
2018-07-17T10:05:35.228Z,98693.10
2018-07-17T10:08:09.308Z,98730.15
2018-07-17T10:10:38.417Z,98743.35
2018-07-17T10:13:13.416Z,98727.63
2018-07-17T10:15:47.381Z,98746.64
2018-07-17T10:18:25.253Z,98754.27
2018-07-17T10:20:53.798Z,98750.20
2018-07-17T10:23:28.154Z,98699.80
2018-07-17T10:25:59.574Z,98745.61
2018-07-17T10:28:28.282Z,98747.52
2018-07-17T10:30:56.577Z,98735.73
2018-07-17T10:33:30.575Z,98712.55
2018-07-17T10:36:01.247Z,98645.84
2018-07-17T10:38:37.223Z,98744.63
2018-07-17T10:41:11.204Z,98735.55
2018-07-17T10:43:45.333Z,98736.11
2018-07-17T10:46:16.724Z,98743.91
2018-07-17T10:48:46.174Z,98742.79
2018-07-17T10:51:15.871Z,98738.92
2018-07-17T10:53:45.582Z,98729.00
2018-07-17T10:56:13.837Z,98727.64
2018-07-17T10:58:41.963Z,98712.80
2018-07-17T11:01:10.415Z,98723.07
2018-07-17T11:03:38.658Z,98722.82
2018-07-17T11:06:07.544Z,98728.56
2018-07-17T11:08:36.845Z,98722.42
2018-07-17T11:11:05.205Z,98720.75
2018-07-17T11:13:33.465Z,98699.97
2018-07-17T11:16:01.979Z,98722.06
2018-07-17T11:18:30.169Z,98710.32
2018-07-17T11:20:58.269Z,98712.23
2018-07-17T11:23:27.219Z,98711.69
2018-07-17T11:25:56.541Z,98713.56
2018-07-17T11:28:25.820Z,98691.74
2018-07-17T11:30:54.392Z,98708.84
2018-07-17T11:33:22.623Z,98705.03
2018-07-17T11:35:51.005Z,98697.50
2018-07-17T11:38:20.791Z,98700.83
2018-07-17T11:40:49.988Z,98703.83
2018-07-17T11:43:18.419Z,98700.53
2018-07-17T11:45:46.988Z,98693.17
2018-07-17T11:48:15.200Z,98695.00
2018-07-17T11:50:43.279Z,98693.77
2018-07-17T11:53:12.203Z,98667.99
2018-07-17T11:55:40.529Z,98688.11
2018-07-17T11:58:09.350Z,98682.98
2018-07-17T12:00:37.847Z,98684.98
2018-07-17T12:03:06.100Z,98682.94
2018-07-17T12:05:34.316Z,98680.95
2018-07-17T12:08:03.289Z,98685.22
2018-07-17T12:10:32.427Z,98680.91
2018-07-17T12:13:00.780Z,98676.92
2018-07-17T12:15:29.429Z,98676.69
2018-07-17T12:17:57.659Z,98674.66
2018-07-17T12:20:25.980Z,98655.35
2018-07-17T12:22:54.014Z,98652.83
2018-07-17T12:25:22.194Z,98660.61
2018-07-17T12:27:51.028Z,98663.16
2018-07-17T12:30:19.271Z,98663.95
2018-07-17T12:32:47.482Z,98661.64
2018-07-17T12:35:15.893Z,98655.34
2018-07-17T12:37:44.024Z,98670.56
2018-07-17T12:40:12.069Z,98667.58
2018-07-17T12:42:40.255Z,98659.74
2018-07-17T12:45:08.360Z,98654.97
2018-07-17T12:47:36.980Z,98664.95
2018-07-17T12:50:06.813Z,98647.09
2018-07-17T12:52:35.387Z,98662.55
2018-07-17T12:55:03.742Z,98661.17
2018-07-17T12:57:31.992Z,98649.25
2018-07-17T13:00:00.111Z,98662.72
2018-07-17T13:02:28.519Z,98665.54
2018-07-17T13:04:57.489Z,98665.95
2018-07-17T13:07:26.126Z,98669.12
2018-07-17T13:09:54.316Z,98676.05
2018-07-17T13:12:23.047Z,98672.03
2018-07-17T13:14:51.228Z,98670.89
2018-07-17T13:17:20.540Z,98679.42
2018-07-17T13:19:49.655Z,98671.31
2018-07-17T13:22:18.567Z,98672.55
2018-07-17T13:24:46.718Z,98673.55
2018-07-17T13:27:15.221Z,98657.92
2018-07-17T13:29:45.063Z,98665.13
2018-07-17T13:32:13.558Z,98666.05
2018-07-17T13:34:42.000Z,98667.23
2018-07-17T13:37:10.248Z,98660.53
2018-07-17T13:39:38.839Z,98659.11
2018-07-17T13:42:06.988Z,98653.80
2018-07-17T13:44:37.290Z,98632.70
2018-07-17T13:47:06.852Z,98650.22
2018-07-17T13:49:35.468Z,98654.57
2018-07-17T13:52:05.453Z,98663.40
2018-07-17T13:54:34.787Z,98650.75
2018-07-17T13:57:03.425Z,98647.87
2018-07-17T13:59:33.401Z,98660.63
2018-07-17T14:02:04.068Z,98666.97
2018-07-17T14:04:32.725Z,98660.31
2018-07-17T14:07:01.083Z,98655.14
2018-07-17T14:09:31.072Z,98655.45
2018-07-17T14:12:00.380Z,98659.52
2018-07-17T14:14:29.859Z,98671.20
2018-07-17T14:16:58.773Z,98654.09
2018-07-17T14:19:27.500Z,98666.48
2018-07-17T14:21:56.626Z,98599.94
2018-07-17T14:24:25.812Z,98663.62
2018-07-17T14:26:59.726Z,98651.03
2018-07-17T14:29:28.300Z,98651.59
2018-07-17T14:31:56.483Z,98636.23
2018-07-17T14:34:25.839Z,98655.95
2018-07-17T14:36:54.891Z,98655.39
2018-07-17T14:39:23.530Z,98653.23
2018-07-17T14:41:52.367Z,98646.95
2018-07-17T14:44:21.341Z,98643.02
2018-07-17T14:46:49.807Z,98648.94
2018-07-17T14:49:19.159Z,98651.71
2018-07-17T14:51:47.349Z,98649.97
2018-07-17T14:54:15.453Z,98663.94
2018-07-17T14:56:44.002Z,98649.86
2018-07-17T14:59:12.290Z,98652.84
2018-07-17T15:01:40.443Z,98663.25
2018-07-17T15:04:09.573Z,98659.98
2018-07-17T15:06:37.955Z,98658.48
2018-07-17T15:09:07.881Z,98656.45
2018-07-17T15:11:36.459Z,98649.45
2018-07-17T15:14:05.005Z,98645.41
2018-07-17T15:16:33.183Z,98651.09
2018-07-17T15:19:01.957Z,98647.25
2018-07-17T15:21:30.152Z,98643.34
2018-07-17T15:23:58.296Z,98648.13
2018-07-17T15:26:26.859Z,98642.78
2018-07-17T15:28:54.922Z,98642.41
2018-07-17T15:31:28.826Z,98650.57
2018-07-17T15:33:57.429Z,98651.06
2018-07-17T15:36:25.967Z,98647.27
2018-07-17T15:38:54.139Z,98648.53
2018-07-17T15:41:24.057Z,98657.08
2018-07-17T15:43:52.728Z,98637.84
2018-07-17T15:46:21.414Z,98648.72
2018-07-17T15:48:50.525Z,98649.72
2018-07-17T15:51:19.779Z,98640.88
2018-07-17T15:53:49.182Z,98641.34
2018-07-17T15:56:18.353Z,98632.33
2018-07-17T15:58:46.928Z,98645.20
2018-07-17T16:01:21.150Z,98650.68
2018-07-17T16:03:51.076Z,98603.60
2018-07-17T16:06:20.009Z,98635.30
2018-07-17T16:08:48.833Z,98651.98
2018-07-17T16:11:17.897Z,98646.06
2018-07-17T16:13:46.189Z,98655.93
2018-07-17T16:16:14.424Z,98645.95
2018-07-17T16:18:43.718Z,98645.27
2018-07-17T16:21:12.006Z,98652.81
2018-07-17T16:23:40.428Z,98648.61
2018-07-17T16:26:08.992Z,98654.29
2018-07-17T16:28:37.192Z,98650.12
2018-07-17T16:31:05.645Z,98650.01
2018-07-17T16:33:34.045Z,98654.06
2018-07-17T16:36:02.773Z,98649.11
2018-07-17T16:38:34.295Z,98648.31
2018-07-17T16:41:02.737Z,98650.77
2018-07-17T16:43:30.978Z,98639.38
2018-07-17T16:45:59.523Z,98638.31
2018-07-17T16:48:27.639Z,98648.66
2018-07-17T16:50:55.725Z,98655.33
2018-07-17T16:53:26.485Z,98656.55
2018-07-17T16:55:54.805Z,98632.43
2018-07-17T16:58:22.850Z,98651.91
2018-07-17T17:00:51.338Z,98657.89
2018-07-17T17:03:19.424Z,98661.23
2018-07-17T17:05:47.484Z,98660.92
2018-07-17T17:08:15.613Z,98647.27
2018-07-17T17:10:44.908Z,98644.11
2018-07-17T17:13:13.231Z,98654.77
2018-07-17T17:15:41.840Z,98628.64
2018-07-17T17:18:10.101Z,98629.92
2018-07-17T17:20:38.240Z,98655.95
2018-07-17T17:23:06.377Z,98653.89
2018-07-17T17:25:34.456Z,98658.21
2018-07-17T17:28:03.120Z,98662.11
2018-07-17T17:30:31.792Z,98669.39
2018-07-17T17:33:01.424Z,98629.16
2018-07-17T17:35:29.827Z,98658.20
2018-07-17T17:37:58.004Z,98656.38
2018-07-17T17:40:26.118Z,98657.30
2018-07-17T17:42:54.299Z,98659.92
2018-07-17T17:45:22.960Z,98657.65
2018-07-17T17:47:51.167Z,98665.17
2018-07-17T17:50:19.296Z,98662.67
2018-07-17T17:52:47.544Z,98659.07
2018-07-17T17:55:15.658Z,98665.81
2018-07-17T17:57:43.791Z,98666.26
2018-07-17T18:00:12.344Z,98667.30
2018-07-17T18:02:40.578Z,98668.41
2018-07-17T18:05:09.150Z,98677.42
2018-07-17T18:07:38.514Z,98661.41
2018-07-17T18:10:07.266Z,98670.20
2018-07-17T18:12:36.023Z,98675.73
2018-07-17T18:15:05.657Z,98677.76
2018-07-17T18:17:33.844Z,98673.58
2018-07-17T18:20:02.269Z,98672.09
2018-07-17T18:22:30.861Z,98685.95
2018-07-17T18:24:59.190Z,98681.47
2018-07-17T18:27:28.118Z,98682.87
2018-07-17T18:29:57.908Z,98689.11
2018-07-17T18:32:26.640Z,98689.05
2018-07-17T18:34:57.094Z,98686.24
2018-07-17T18:37:31.395Z,98694.97
2018-07-17T18:39:59.979Z,98698.20
2018-07-17T18:42:28.863Z,98683.09
2018-07-17T18:44:58.066Z,98612.59
2018-07-17T18:47:27.345Z,98704.23
2018-07-17T18:50:12.862Z,98704.25
2018-07-17T18:52:50.665Z,98717.19
2018-07-17T18:55:19.291Z,98712.71
2018-07-17T18:57:53.939Z,98721.13
2018-07-17T19:00:39.126Z,98719.59
2018-07-17T19:03:30.259Z,98572.28
2018-07-17T19:06:04.338Z,98729.02
2018-07-17T19:08:40.320Z,98735.25
2018-07-17T19:11:20.126Z,98700.66
2018-07-17T19:13:51.546Z,98735.27
2018-07-17T19:16:26.232Z,98725.43
2018-07-17T19:18:56.402Z,98749.49
2018-07-17T19:21:39.218Z,98751.13
2018-07-17T19:27:03.386Z,98733.50
2018-07-17T19:29:46.724Z,98761.50
2018-07-17T19:32:30.627Z,98758.16
2018-07-17T19:35:05.322Z,98729.39
2018-07-17T19:37:36.075Z,98765.87
2018-07-17T19:40:07.710Z,98772.80
2018-07-17T19:42:42.738Z,98772.79
2018-07-17T19:45:20.698Z,98777.53
2018-07-17T19:47:52.372Z,98782.51
2018-07-17T19:50:21.082Z,98777.47
2018-07-17T19:52:54.682Z,98734.35
2018-07-17T19:58:23.178Z,98775.54
2018-07-17T20:01:04.164Z,98782.31
2018-07-17T20:03:40.415Z,98805.09
2018-07-17T20:06:10.611Z,98769.20
2018-07-17T20:08:39.979Z,98783.67
2018-07-17T20:11:14.898Z,98792.16
2018-07-17T20:13:50.890Z,98790.19
2018-07-17T20:16:19.329Z,98794.69
2018-07-17T20:18:53.648Z,98788.95
2018-07-17T20:21:31.926Z,98743.70
2018-07-17T20:24:06.101Z,98797.89
2018-07-17T20:26:35.934Z,98794.80
2018-07-17T20:29:06.138Z,98794.41
2018-07-17T20:31:36.680Z,98762.80
2018-07-17T20:37:33.544Z,98790.86
2018-07-17T20:40:02.385Z,98800.83
2018-07-17T20:42:33.175Z,98792.92
2018-07-17T20:45:03.689Z,98791.71
2018-07-17T20:47:36.159Z,98800.70
2018-07-17T20:50:05.394Z,98728.19
2018-07-17T20:52:34.845Z,98796.37
2018-07-17T20:55:09.300Z,98789.86
2018-07-17T20:57:38.289Z,98799.16
2018-07-17T21:00:07.137Z,98802.95
2018-07-17T21:02:42.972Z,98794.38
2018-07-17T21:05:12.219Z,98798.31
2018-07-17T21:07:45.563Z,98797.34
2018-07-17T21:10:15.187Z,98794.38
2018-07-17T21:12:44.813Z,98797.34
2018-07-17T21:15:15.881Z,98688.98
2018-07-17T21:17:46.060Z,98796.84
2018-07-17T21:20:15.781Z,98800.05
2018-07-17T21:22:49.452Z,98806.48
2018-07-17T21:25:22.322Z,98805.86
2018-07-17T21:27:52.335Z,98815.88
2018-07-17T21:30:21.402Z,98806.47
2018-07-17T21:32:50.136Z,98807.94
2018-07-17T21:35:18.482Z,98809.41
2018-07-17T21:37:46.573Z,98810.59
2018-07-17T21:40:15.203Z,98820.22
2018-07-17T21:42:43.423Z,98818.86
2018-07-17T21:45:11.511Z,98864.48
2018-07-17T21:47:39.979Z,98792.19
2018-07-17T21:50:08.166Z,98824.77
2018-07-17T21:52:36.588Z,98818.45
2018-07-17T21:55:05.830Z,98826.36
2018-07-17T21:57:33.919Z,98837.48
2018-07-17T22:00:03.184Z,98827.72
2018-07-17T22:02:31.743Z,98834.67
2018-07-17T22:05:00.986Z,98833.07
2018-07-17T22:07:29.614Z,98837.76
2018-07-17T22:09:58.385Z,98831.81
2018-07-17T22:12:26.915Z,98838.48
2018-07-17T22:14:55.586Z,98832.69
2018-07-17T22:17:23.735Z,98835.73
2018-07-17T22:19:51.831Z,98837.67
2018-07-17T22:22:21.171Z,98839.12
2018-07-17T22:24:51.912Z,98837.91
2018-07-17T22:27:20.749Z,98842.31
2018-07-17T22:29:49.030Z,98794.23
2018-07-17T22:32:17.304Z,98839.52
2018-07-17T22:34:45.603Z,98846.77
2018-07-17T22:37:14.566Z,98840.44
2018-07-17T22:39:42.683Z,98852.62
2018-07-17T22:42:11.138Z,98856.25
2018-07-17T22:44:39.663Z,98843.58
2018-07-17T22:47:07.757Z,98840.45
2018-07-17T22:49:35.914Z,98845.69
2018-07-17T22:52:05.251Z,98844.01
2018-07-17T22:54:33.724Z,98844.92
2018-07-17T22:57:02.104Z,98849.66
2018-07-17T22:59:30.277Z,98844.89
2018-07-17T23:01:58.463Z,98845.80
2018-07-17T23:04:26.590Z,98849.98
2018-07-17T23:06:55.497Z,98855.79
2018-07-17T23:09:24.215Z,98859.94
2018-07-17T23:11:52.477Z,98852.27
2018-07-17T23:14:21.649Z,98861.16
2018-07-17T23:16:49.757Z,98862.23
2018-07-17T23:19:18.190Z,98855.77
2018-07-17T23:21:47.130Z,98812.92
2018-07-17T23:24:16.057Z,98864.48
2018-07-17T23:26:44.621Z,98863.34
2018-07-17T23:29:13.647Z,98857.23
2018-07-17T23:31:41.971Z,98869.94
2018-07-17T23:34:12.345Z,98870.80
2018-07-17T23:36:40.806Z,98877.55
2018-07-17T23:39:11.013Z,98879.84
2018-07-17T23:41:39.356Z,98873.80
2018-07-17T23:44:07.610Z,98887.30
2018-07-17T23:46:37.766Z,98886.19
2018-07-17T23:49:06.007Z,98887.82
2018-07-17T23:51:34.948Z,98893.83
2018-07-17T23:54:05.592Z,98894.22
2018-07-17T23:56:36.820Z,98865.77
2018-07-17T23:59:06.151Z,98886.17
